Terminal Aerodrome Forecast
Issued by NWS

Home | Current Version | Previous Version | Text Only | Print | Product List | Glossary On
Versions: 1 2 3 4 5 6 7 8 9 10 11 12 13 14 15 16 17 18 19 20 21 22 23 24 25 26
000
FTAK31 PANC 240528
TAFADU
TAF
PADU 240528Z 2406/2506 VRB05KT P6SM FEW010 BKN020 OVC035
      TEMPO 2406/2410 SCT020 BKN035
     FM241800 15008KT P6SM VCSH OVC025
     FM250000 13010G16KT P6SM -SHRA OVC025=

USA.gov is the U.S. government's official web portal to all federal, state and local government web resources and services.